Time;durP1;ratioP1;P1;durP2;ratioP2;P2;SDS_P1;SDS_P2;PMS_P1;PMS_P2;Temp;Humidity;BMP_temperature;BMP_pressure;BME280_temperature;BME280_humidity;BME280_pressure;Samples;Min_cycle;Max_cycle;Signal;HPM_P1;HPM_P2
2023/06/12 00:01:05;;;;;;;3.95;2.60;;;23.80;96.70;;;;;;5073563;28;20488;-69
2023/06/12 00:03:47;;;;;;;4.35;3.15;;;23.70;96.70;;;;;;5075736;28;20040;-69
2023/06/12 00:06:16;;;;;;;4.53;2.80;;;23.70;96.70;;;;;;5061061;28;20047;-69
2023/06/12 00:08:46;;;;;;;4.30;2.80;;;23.70;96.70;;;;;;5072868;28;20055;-69
2023/06/12 00:11:14;;;;;;;4.82;3.22;;;23.70;96.70;;;;;;5073816;28;20049;-69
2023/06/12 00:13:55;;;;;;;4.07;3.10;;;23.70;96.70;;;;;;5070785;28;20044;-69
2023/06/12 00:16:23;;;;;;;5.72;2.85;;;23.70;96.70;;;;;;5075403;28;20072;-69
2023/06/12 00:18:52;;;;;;;6.30;3.22;;;23.60;96.70;;;;;;5072212;28;20048;-69
2023/06/12 00:21:21;;;;;;;4.20;2.63;;;23.60;96.70;;;;;;5075352;28;20048;-70
2023/06/12 00:23:51;;;;;;;4.57;2.80;;;23.60;96.70;;;;;;5071286;28;20056;-69
2023/06/12 00:26:19;;;;;;;4.85;2.63;;;23.60;96.70;;;;;;5074671;28;20048;-69
2023/06/12 00:28:48;;;;;;;5.35;3.17;;;23.60;96.70;;;;;;5072855;28;20647;-69
2023/06/12 00:31:16;;;;;;;6.20;2.95;;;23.40;96.70;;;;;;5073116;28;20498;-69
2023/06/12 00:33:43;;;;;;;7.97;2.92;;;23.50;96.70;;;;;;5071816;28;20440;-69
2023/06/12 00:36:12;;;;;;;4.13;2.60;;;23.20;96.70;;;;;;5074746;28;20032;-69
2023/06/12 00:38:43;;;;;;;6.85;3.28;;;23.10;96.70;;;;;;5086041;28;20379;-69
2023/06/12 00:41:13;;;;;;;4.88;2.65;;;23.00;96.70;;;;;;5073302;28;20040;-69
2023/06/12 00:43:41;;;;;;;5.03;2.80;;;23.00;96.70;;;;;;5067053;28;20075;-69
2023/06/12 00:46:10;;;;;;;5.30;2.50;;;23.20;96.70;;;;;;5070895;28;20134;-69
2023/06/12 00:48:40;;;;;;;4.10;2.95;;;23.30;96.70;;;;;;5069499;28;20063;-70
2023/06/12 00:51:09;;;;;;;5.00;2.90;;;23.30;96.70;;;;;;5067177;28;20037;-69
2023/06/12 00:53:37;;;;;;;6.47;2.90;;;23.30;96.70;;;;;;5057998;28;20521;-69
2023/06/12 00:56:05;;;;;;;3.20;2.65;;;23.30;96.70;;;;;;5070194;28;20055;-69
2023/06/12 00:58:35;;;;;;;5.03;3.38;;;23.20;96.70;;;;;;5069406;28;20049;-69
2023/06/12 01:01:03;;;;;;;4.32;3.20;;;23.10;96.70;;;;;;5096167;28;20640;-68
2023/06/12 01:03:32;;;;;;;4.38;3.05;;;22.90;96.70;;;;;;5077622;28;20043;-69
2023/06/12 01:06:04;;;;;;;4.15;2.75;;;22.70;96.70;;;;;;5076300;28;20040;-69
2023/06/12 01:08:40;;;;;;;6.55;3.47;;;22.80;96.70;;;;;;5056176;28;20129;-69
2023/06/12 01:11:11;;;;;;;8.88;4.05;;;22.90;96.70;;;;;;5075279;28;20032;-69
2023/06/12 01:13:42;;;;;;;7.78;3.75;;;22.60;96.70;;;;;;5079440;28;20048;-69
2023/06/12 01:16:10;;;;;;;5.50;3.17;;;22.50;96.70;;;;;;5073964;28;20040;-69
2023/06/12 01:18:38;;;;;;;8.88;3.67;;;22.70;96.70;;;;;;5078934;28;20062;-69
2023/06/12 01:21:12;;;;;;;8.07;3.35;;;22.90;96.70;;;;;;5076123;28;20059;-69
2023/06/12 01:24:08;;;;;;;4.53;2.88;;;23.00;96.70;;;;;;5073855;28;20637;-69
2023/06/12 01:26:52;;;;;;;5.13;3.17;;;23.00;96.70;;;;;;5080842;28;20077;-69
2023/06/12 01:29:49;;;;;;;4.97;3.00;;;23.10;96.70;;;;;;5069853;28;20048;-69
2023/06/12 01:32:20;;;;;;;4.85;3.13;;;23.00;96.70;;;;;;5073344;28;20059;-69
2023/06/12 01:34:54;;;;;;;5.65;3.67;;;22.80;96.70;;;;;;5076316;28;20052;-69
2023/06/12 01:37:31;;;;;;;6.28;3.08;;;22.80;96.70;;;;;;5077162;28;20068;-69
2023/06/12 01:40:07;;;;;;;7.20;3.22;;;22.80;96.70;;;;;;5072627;28;20048;-69
2023/06/12 01:42:36;;;;;;;6.20;2.97;;;22.80;96.70;;;;;;5078090;28;20478;-69
2023/06/12 01:45:05;;;;;;;8.05;2.95;;;22.80;96.70;;;;;;5077841;28;20516;-69
2023/06/12 01:47:34;;;;;;;5.93;3.50;;;22.90;96.70;;;;;;5073621;28;20041;-69
2023/06/12 01:50:04;;;;;;;6.47;3.70;;;22.90;96.70;;;;;;5076430;28;20934;-69
2023/06/12 01:52:34;;;;;;;5.95;3.63;;;22.60;96.70;;;;;;5076584;28;20066;-69
2023/06/12 01:55:04;;;;;;;5.10;3.38;;;22.30;96.70;;;;;;5088480;28;20418;-69
2023/06/12 01:57:32;;;;;;;6.93;3.72;;;22.10;96.70;;;;;;5076872;28;20051;-69
2023/06/12 02:00:04;;;;;;;4.55;3.40;;;22.00;96.70;;;;;;5071879;28;20075;-69
2023/06/12 02:02:48;;;;;;;5.03;2.97;;;22.20;96.70;;;;;;5074076;28;20462;-69
2023/06/12 02:05:20;;;;;;;3.97;3.22;;;22.50;96.70;;;;;;5074615;28;20660;-69
2023/06/12 02:07:48;;;;;;;6.43;3.17;;;22.70;96.70;;;;;;5072979;28;20512;-69
2023/06/12 02:10:17;;;;;;;5.55;3.33;;;22.70;96.70;;;;;;5074555;28;20119;-69
2023/06/12 02:12:45;;;;;;;3.88;3.22;;;22.80;96.70;;;;;;5077256;28;21502;-69
2023/06/12 02:15:13;;;;;;;5.07;3.53;;;22.80;96.70;;;;;;5074218;28;20090;-69
2023/06/12 02:17:41;;;;;;;6.00;3.40;;;22.60;96.70;;;;;;5073482;28;20598;-69
2023/06/12 02:20:11;;;;;;;7.45;3.60;;;22.70;96.70;;;;;;5068253;28;20047;-69
2023/06/12 02:22:39;;;;;;;6.53;3.72;;;22.70;96.70;;;;;;5071387;28;20070;-69
2023/06/12 02:25:08;;;;;;;5.45;3.60;;;22.80;96.70;;;;;;5072547;28;20547;-69
2023/06/12 02:27:36;;;;;;;6.15;3.63;;;22.70;96.70;;;;;;5087055;28;20044;-69
2023/06/12 02:30:05;;;;;;;5.05;2.90;;;22.70;96.70;;;;;;5060519;28;20328;-69
2023/06/12 02:32:35;;;;;;;5.97;3.35;;;22.70;96.70;;;;;;5091161;28;20044;-69
2023/06/12 02:35:10;;;;;;;4.68;3.20;;;22.70;96.70;;;;;;5055467;28;20514;-69
2023/06/12 02:37:40;;;;;;;5.30;3.63;;;22.50;96.70;;;;;;5074151;28;20127;-69
2023/06/12 02:40:10;;;;;;;6.63;3.05;;;22.60;96.70;;;;;;5074834;28;20131;-69
2023/06/12 02:42:39;;;;;;;8.02;3.42;;;22.50;96.70;;;;;;5076764;28;21045;-69
2023/06/12 02:45:08;;;;;;;4.80;3.33;;;22.50;96.70;;;;;;5079575;28;20048;-69
2023/06/12 02:47:36;;;;;;;4.93;2.47;;;22.50;96.70;;;;;;5073598;28;20500;-69
2023/06/12 02:50:07;;;;;;;5.80;2.80;;;22.40;96.70;;;;;;5077963;28;20390;-70
2023/06/12 02:53:00;;;;;;;6.13;2.78;;;22.40;96.70;;;;;;5071958;28;20046;-69
2023/06/12 02:55:27;;;;;;;4.78;2.92;;;22.50;96.70;;;;;;5071330;28;20045;-68
2023/06/12 02:57:56;;;;;;;6.15;2.53;;;22.50;96.70;;;;;;5077126;28;20036;-70
2023/06/12 03:00:24;;;;;;;5.93;2.80;;;22.40;96.70;;;;;;5078844;28;21209;-69
2023/06/12 03:02:55;;;;;;;6.43;2.40;;;22.30;96.70;;;;;;5073537;28;20149;-69
2023/06/12 03:05:26;;;;;;;4.63;2.88;;;22.20;96.70;;;;;;5096915;27;20047;-69
2023/06/12 03:07:57;;;;;;;3.55;2.60;;;22.20;96.70;;;;;;5074849;28;20042;-70
2023/06/12 03:10:27;;;;;;;5.13;2.83;;;22.20;96.70;;;;;;5075483;28;20072;-70
2023/06/12 03:12:55;;;;;;;5.55;2.67;;;22.10;96.70;;;;;;5073357;28;20040;-70
2023/06/12 03:15:24;;;;;;;5.85;2.92;;;22.10;96.70;;;;;;5057832;28;20470;-69
2023/06/12 03:17:52;;;;;;;5.22;2.67;;;22.10;96.70;;;;;;5072232;28;20593;-70
2023/06/12 03:20:20;;;;;;;4.40;2.40;;;22.00;96.70;;;;;;5068277;28;20041;-71
2023/06/12 03:22:48;;;;;;;4.55;2.80;;;22.10;96.70;;;;;;5076789;28;20068;-70
2023/06/12 03:25:18;;;;;;;5.40;2.47;;;22.10;96.70;;;;;;5074903;28;20051;-70
2023/06/12 03:27:49;;;;;;;5.57;2.50;;;22.10;96.70;;;;;;5092310;28;20044;-70
2023/06/12 03:30:17;;;;;;;6.32;2.40;;;22.10;96.70;;;;;;5062207;28;20052;-70
2023/06/12 03:32:46;;;;;;;7.78;2.60;;;22.10;96.70;;;;;;5077157;28;20634;-70
2023/06/12 03:35:15;;;;;;;4.35;2.10;;;22.10;96.70;;;;;;5076000;28;20412;-70
2023/06/12 03:37:45;;;;;;;6.82;2.65;;;22.10;96.70;;;;;;5078436;28;20127;-70
2023/06/12 03:40:14;;;;;;;5.25;2.60;;;22.20;96.70;;;;;;5072471;28;20032;-70
2023/06/12 03:42:43;;;;;;;4.13;2.13;;;22.20;96.70;;;;;;5068354;28;20162;-70
2023/06/12 03:45:13;;;;;;;3.33;2.33;;;22.20;96.70;;;;;;5069570;28;20441;-70
2023/06/12 03:47:42;;;;;;;5.38;2.80;;;22.10;96.70;;;;;;5073647;28;20056;-70
2023/06/12 03:50:11;;;;;;;3.55;1.90;;;22.10;96.70;;;;;;5069501;28;20036;-69
2023/06/12 03:52:40;;;;;;;6.35;2.42;;;22.10;96.70;;;;;;5069377;28;20102;-69
2023/06/12 03:55:08;;;;;;;4.35;2.10;;;22.00;96.70;;;;;;5071721;28;20044;-69
2023/06/12 03:57:36;;;;;;;2.17;1.98;;;22.00;96.70;;;;;;5068814;28;20044;-69
2023/06/12 04:00:06;;;;;;;4.25;2.67;;;22.00;96.70;;;;;;5071436;28;20039;-69
2023/06/12 04:02:44;;;;;;;3.03;1.90;;;22.00;96.70;;;;;;5071072;28;20047;-69
2023/06/12 04:05:20;;;;;;;2.50;2.05;;;21.90;96.70;;;;;;5054870;28;20105;-69
2023/06/12 04:07:49;;;;;;;2.45;1.90;;;21.90;96.70;;;;;;5070945;28;21298;-69
2023/06/12 04:10:18;;;;;;;2.00;1.80;;;22.00;96.70;;;;;;5071577;28;20426;-69
2023/06/12 04:12:47;;;;;;;2.00;1.83;;;22.00;96.70;;;;;;5074984;28;20044;-69
2023/06/12 04:15:18;;;;;;;5.32;2.22;;;21.90;96.70;;;;;;5071018;28;20040;-68
2023/06/12 04:17:49;;;;;;;2.15;1.98;;;21.90;96.70;;;;;;5053237;28;20055;-69
2023/06/12 04:20:19;;;;;;;3.58;2.20;;;21.90;96.70;;;;;;5074867;28;20576;-69
2023/06/12 04:22:50;;;;;;;3.70;2.03;;;21.90;96.70;;;;;;5073715;28;20155;-68
2023/06/12 04:25:19;;;;;;;4.47;1.80;;;21.90;96.70;;;;;;5077890;28;20143;-69
2023/06/12 04:27:48;;;;;;;2.45;2.05;;;22.00;96.70;;;;;;5058029;28;20071;-69
2023/06/12 04:30:16;;;;;;;2.75;2.17;;;22.00;96.70;;;;;;5073621;28;20395;-69
2023/06/12 04:32:45;;;;;;;4.15;2.60;;;22.10;96.70;;;;;;5074554;28;20206;-69
2023/06/12 04:35:19;;;;;;;2.53;2.30;;;22.10;96.70;;;;;;5074523;28;20052;-69
2023/06/12 04:37:48;;;;;;;4.07;2.13;;;22.00;96.70;;;;;;5076831;28;20043;-69
2023/06/12 04:40:16;;;;;;;2.38;2.17;;;22.10;96.70;;;;;;5073246;28;20394;-69
2023/06/12 04:42:46;;;;;;;3.22;2.33;;;22.10;96.70;;;;;;5091166;28;20051;-69
2023/06/12 04:45:18;;;;;;;6.10;3.22;;;22.10;96.70;;;;;;5076571;28;20047;-69
2023/06/12 04:47:47;;;;;;;4.88;3.33;;;22.00;96.70;;;;;;5080299;28;20044;-69
2023/06/12 04:50:18;;;;;;;6.07;3.80;;;21.90;96.70;;;;;;5072259;28;20510;-69
2023/06/12 04:53:06;;;;;;;8.35;4.90;;;22.00;96.70;;;;;;5074140;28;20048;-70
2023/06/12 04:55:34;;;;;;;6.43;4.68;;;22.10;96.70;;;;;;5075444;28;20070;-69
2023/06/12 04:58:03;;;;;;;6.32;4.53;;;22.10;96.70;;;;;;5074931;28;20032;-69
2023/06/12 05:00:33;;;;;;;9.13;5.18;;;22.00;96.70;;;;;;5075580;28;20510;-69
2023/06/12 05:03:02;;;;;;;10.93;6.10;;;22.10;96.70;;;;;;5073249;28;20081;-69
2023/06/12 05:05:33;;;;;;;7.38;4.43;;;22.30;96.70;;;;;;5081059;28;20045;-69
2023/06/12 05:08:01;;;;;;;8.07;5.03;;;22.20;96.70;;;;;;5077012;28;20639;-69
2023/06/12 05:10:31;;;;;;;9.07;4.00;;;22.20;96.70;;;;;;5077808;28;20048;-69
2023/06/12 05:13:00;;;;;;;8.95;3.90;;;22.30;96.70;;;;;;5080040;28;20040;-69
2023/06/12 05:15:28;;;;;;;5.88;3.67;;;22.20;96.70;;;;;;5075725;28;20046;-69
2023/06/12 05:17:56;;;;;;;5.22;4.25;;;22.20;96.70;;;;;;5080341;28;20151;-70
2023/06/12 05:20:25;;;;;;;8.65;4.28;;;22.20;96.70;;;;;;5072540;28;20740;-69
2023/06/12 05:22:55;;;;;;;8.85;5.45;;;22.10;96.70;;;;;;5089900;28;20649;-69
2023/06/12 05:25:24;;;;;;;12.45;5.72;;;22.00;96.70;;;;;;5076438;28;20056;-69
2023/06/12 05:27:53;;;;;;;10.13;6.30;;;21.90;96.70;;;;;;5075736;28;20129;-68
2023/06/12 05:30:21;;;;;;;8.00;6.28;;;21.90;96.70;;;;;;5077773;28;20040;-69
2023/06/12 05:33:00;;;;;;;11.57;7.25;;;21.80;96.70;;;;;;5073672;28;20048;-69
2023/06/12 05:35:30;;;;;;;9.00;6.55;;;21.70;96.70;;;;;;5080365;28;20095;-69
2023/06/12 05:38:01;;;;;;;9.27;6.97;;;21.70;96.70;;;;;;5096760;28;20040;-69
2023/06/12 05:40:30;;;;;;;11.18;6.30;;;21.80;96.70;;;;;;5080765;28;20048;-69
2023/06/12 05:42:59;;;;;;;10.45;7.13;;;22.00;96.70;;;;;;5071642;28;20793;-69
2023/06/12 05:45:28;;;;;;;10.43;7.35;;;22.10;96.70;;;;;;5074489;28;20105;-69
2023/06/12 05:48:00;;;;;;;8.50;6.65;;;22.20;96.70;;;;;;5077624;28;20102;-69
2023/06/12 05:50:28;;;;;;;8.55;5.82;;;22.20;96.70;;;;;;5072347;28;20399;-69
2023/06/12 05:52:56;;;;;;;9.40;6.45;;;22.30;96.70;;;;;;5074669;28;20513;-69
2023/06/12 05:55:27;;;;;;;10.30;6.60;;;22.40;96.70;;;;;;5074747;28;20048;-69
2023/06/12 05:57:58;;;;;;;8.98;7.20;;;22.50;96.70;;;;;;5075743;28;20048;-70
2023/06/12 06:00:26;;;;;;;7.15;6.20;;;22.40;96.70;;;;;;5073316;28;20036;-69
2023/06/12 06:03:00;;;;;;;7.45;6.40;;;22.50;96.70;;;;;;5078675;28;20044;-69
2023/06/12 06:05:31;;;;;;;7.68;5.60;;;22.60;96.70;;;;;;5077180;28;20049;-69
2023/06/12 06:08:12;;;;;;;8.48;5.82;;;22.80;96.70;;;;;;5078095;28;20039;-69
2023/06/12 06:10:46;;;;;;;8.02;5.50;;;22.90;96.70;;;;;;5097857;27;20055;-69
2023/06/12 06:13:17;;;;;;;4.93;4.30;;;23.00;96.70;;;;;;5071478;28;20239;-68
2023/06/12 06:15:48;;;;;;;4.55;3.42;;;23.00;96.70;;;;;;5073810;28;20060;-69
2023/06/12 06:18:17;;;;;;;5.22;3.80;;;23.10;96.70;;;;;;5073532;28;20048;-69
2023/06/12 06:20:46;;;;;;;4.55;3.58;;;23.20;96.70;;;;;;5074709;28;20036;-69
2023/06/12 06:23:14;;;;;;;4.97;3.78;;;23.20;96.70;;;;;;5072209;28;20060;-69
2023/06/12 06:25:43;;;;;;;8.07;4.03;;;23.20;96.70;;;;;;5070112;28;20433;-69
2023/06/12 06:28:12;;;;;;;3.90;3.53;;;23.30;96.70;;;;;;5076252;28;20055;-69
2023/06/12 06:30:41;;;;;;;6.90;3.83;;;23.40;96.70;;;;;;5091407;28;20048;-69
2023/06/12 06:33:09;;;;;;;6.85;2.90;;;23.40;96.70;;;;;;5074613;28;20078;-69
2023/06/12 06:35:38;;;;;;;6.35;2.80;;;23.40;96.70;;;;;;5074141;28;20793;-69
2023/06/12 06:38:06;;;;;;;3.63;3.20;;;23.50;96.70;;;;;;5074021;28;20040;-69
2023/06/12 06:40:35;;;;;;;6.40;3.40;;;23.60;96.70;;;;;;5073343;28;20035;-69
2023/06/12 06:43:04;;;;;;;3.63;3.15;;;23.60;96.70;;;;;;5075814;28;20051;-69
2023/06/12 06:45:50;;;;;;;3.17;2.75;;;23.60;96.70;;;;;;5091701;28;20044;-69
2023/06/12 06:48:20;;;;;;;7.50;3.58;;;23.60;96.70;;;;;;5071590;28;20040;-69
2023/06/12 06:50:48;;;;;;;3.67;3.20;;;23.60;96.70;;;;;;5071707;28;20040;-69
2023/06/12 06:53:18;;;;;;;4.18;3.03;;;23.70;96.70;;;;;;5078104;28;20068;-69
2023/06/12 06:55:47;;;;;;;4.78;3.03;;;23.70;96.70;;;;;;5073878;28;20071;-70
2023/06/12 06:58:16;;;;;;;3.47;3.08;;;23.70;96.70;;;;;;5075135;28;20040;-73
2023/06/12 07:00:44;;;;;;;8.57;4.93;;;23.70;96.70;;;;;;5082221;28;20378;-70
2023/06/12 07:03:15;;;;;;;7.80;4.68;;;23.70;96.70;;;;;;5081166;28;20117;-73
2023/06/12 07:05:44;;;;;;;10.45;5.45;;;23.70;96.70;;;;;;5078235;28;20078;-72
2023/06/12 07:08:13;;;;;;;9.90;5.28;;;23.80;96.70;;;;;;5082015;28;20097;-70
2023/06/12 07:10:43;;;;;;;9.80;5.93;;;23.80;96.70;;;;;;5082055;28;20048;-70
2023/06/12 07:13:13;;;;;;;12.98;6.20;;;23.90;96.70;;;;;;5055741;28;20094;-72
2023/06/12 07:15:49;;;;;;;;;;;23.90;96.70;;;;;;5076814;28;20462;-71
2023/06/12 07:18:19;;;;;;;10.98;6.28;;;24.00;96.70;;;;;;5063340;28;20073;-72
2023/06/12 07:20:48;;;;;;;10.93;6.43;;;24.00;96.70;;;;;;5081359;28;20052;-71
2023/06/12 07:23:17;;;;;;;11.63;5.78;;;24.10;96.70;;;;;;5062181;28;20135;-73
2023/06/12 07:25:45;;;;;;;11.32;6.88;;;24.10;96.70;;;;;;5078887;28;20131;-71
2023/06/12 07:28:14;;;;;;;10.32;5.88;;;24.10;96.70;;;;;;5070722;28;20055;-71
2023/06/12 07:30:43;;;;;;;9.13;5.72;;;24.10;96.70;;;;;;5079728;28;20044;-71
2023/06/12 07:33:14;;;;;;;10.02;5.43;;;24.20;96.70;;;;;;5064736;28;20040;-70
2023/06/12 07:35:46;;;;;;;10.68;5.20;;;24.20;96.70;;;;;;5081692;28;20055;-71
2023/06/12 07:38:15;;;;;;;7.13;4.30;;;24.30;96.70;;;;;;5080284;28;20118;-71
2023/06/12 07:40:43;;;;;;;8.82;4.47;;;24.30;96.70;;;;;;5073218;28;20040;-70
2023/06/12 07:43:12;;;;;;;8.68;4.15;;;24.40;96.70;;;;;;5080820;28;20064;-71
2023/06/12 07:45:40;;;;;;;4.68;3.90;;;24.50;96.70;;;;;;5082340;28;20040;-70
2023/06/12 07:48:09;;;;;;;5.22;3.60;;;24.50;96.70;;;;;;5076864;28;20072;-70
2023/06/12 07:50:42;;;;;;;4.85;3.72;;;24.60;96.70;;;;;;5064154;28;20052;-71
2023/06/12 07:53:13;;;;;;;6.32;4.10;;;24.60;96.70;;;;;;5056074;28;20066;-71
2023/06/12 07:56:02;;;;;;;6.63;3.83;;;24.60;96.70;;;;;;5067689;28;20044;-71
2023/06/12 07:58:31;;;;;;;6.72;4.47;;;24.80;96.70;;;;;;5073148;28;20067;-71
2023/06/12 08:01:04;;;;;;;6.13;4.18;;;24.80;96.70;;;;;;5080354;28;20048;-72
2023/06/12 08:03:39;;;;;;;6.15;3.80;;;24.80;96.70;;;;;;5077239;28;20059;-71
2023/06/12 08:06:11;;;;;;;5.07;3.80;;;24.70;96.70;;;;;;5077484;28;20036;-71
2023/06/12 08:08:43;;;;;;;8.43;3.30;;;24.80;96.70;;;;;;5081202;28;20062;-71
2023/06/12 08:11:12;;;;;;;3.22;2.92;;;24.90;96.70;;;;;;5081222;28;20059;-70
2023/06/12 08:13:43;;;;;;;4.05;2.85;;;24.90;96.70;;;;;;5081042;28;20311;-71
2023/06/12 08:16:13;;;;;;;4.43;3.03;;;24.90;96.70;;;;;;5081207;28;20074;-70
2023/06/12 08:18:42;;;;;;;5.20;3.42;;;25.00;96.70;;;;;;5072041;28;20058;-72
2023/06/12 08:21:12;;;;;;;5.72;3.92;;;25.00;96.70;;;;;;5080470;28;20048;-72
2023/06/12 08:23:40;;;;;;;6.30;3.60;;;25.10;96.70;;;;;;5079372;28;20075;-72
2023/06/12 08:26:09;;;;;;;6.70;3.65;;;25.20;96.70;;;;;;5078830;28;20045;-70
2023/06/12 08:28:37;;;;;;;5.68;3.65;;;25.30;96.70;;;;;;5082811;28;20615;-72
2023/06/12 08:31:13;;;;;;;4.88;3.60;;;25.30;96.70;;;;;;5080615;28;20048;-72
2023/06/12 08:33:41;;;;;;;4.40;3.25;;;25.30;96.70;;;;;;5080145;28;20048;-72
2023/06/12 08:36:10;;;;;;;4.95;3.40;;;25.40;96.70;;;;;;5079628;28;20040;-71
2023/06/12 08:38:39;;;;;;;3.08;2.70;;;25.50;96.70;;;;;;5080670;28;20050;-71
2023/06/12 08:41:10;;;;;;;3.75;2.95;;;25.60;96.70;;;;;;5080807;28;20131;-72
2023/06/12 08:43:38;;;;;;;2.75;2.47;;;25.60;96.70;;;;;;5079704;28;20067;-71
2023/06/12 08:46:07;;;;;;;3.80;2.92;;;25.60;96.70;;;;;;5062906;28;20032;-73
2023/06/12 08:48:36;;;;;;;5.13;3.10;;;25.60;96.70;;;;;;5074742;28;20055;-72
2023/06/12 08:51:05;;;;;;;3.75;2.85;;;25.80;96.70;;;;;;5080505;28;20040;-72
2023/06/12 08:53:34;;;;;;;3.00;2.67;;;25.80;96.70;;;;;;5072774;28;20543;-71
2023/06/12 08:56:03;;;;;;;4.10;2.78;;;26.00;96.70;;;;;;5076286;28;20110;-71
2023/06/12 08:58:32;;;;;;;3.30;2.97;;;26.00;96.70;;;;;;5076951;28;20558;-71
2023/06/12 09:01:01;;;;;;;4.55;2.70;;;26.00;96.70;;;;;;5072826;28;20044;-70
2023/06/12 09:03:31;;;;;;;4.22;2.88;;;26.00;96.70;;;;;;5072865;28;20036;-71
2023/06/12 09:06:05;;;;;;;3.90;3.00;;;26.10;96.70;;;;;;5080256;28;20584;-70
2023/06/12 09:08:34;;;;;;;4.47;2.80;;;26.20;96.70;;;;;;5069604;28;20525;-70
2023/06/12 09:11:02;;;;;;;3.75;2.78;;;26.50;96.70;;;;;;5079812;28;20516;-70
2023/06/12 09:13:42;;;;;;;3.17;2.50;;;26.60;96.70;;;;;;5079397;28;20078;-72
2023/06/12 09:16:14;;;;;;;2.75;2.55;;;26.60;96.70;;;;;;5075279;28;20067;-71
2023/06/12 09:18:49;;;;;;;3.10;2.80;;;26.70;96.70;;;;;;5080266;28;20528;-70
2023/06/12 09:21:22;;;;;;;3.33;2.72;;;26.80;96.70;;;;;;5075886;28;20091;-70
2023/06/12 09:23:51;;;;;;;2.88;2.67;;;26.90;96.70;;;;;;5073754;28;20147;-73
2023/06/12 09:26:24;;;;;;;3.42;2.67;;;27.00;96.70;;;;;;5080786;28;21186;-70
2023/06/12 09:28:54;;;;;;;5.55;2.55;;;26.90;96.70;;;;;;5080865;28;20044;-71
2023/06/12 09:31:22;;;;;;;3.13;2.70;;;26.90;96.70;;;;;;5080511;28;20041;-74
2023/06/12 09:33:52;;;;;;;3.00;2.50;;;26.90;96.70;;;;;;5060118;28;20055;-71
2023/06/12 09:36:26;;;;;;;4.57;2.70;;;26.80;96.70;;;;;;5074446;28;20493;-72
2023/06/12 09:39:15;;;;;;;6.72;2.53;;;26.80;96.70;;;;;;5083229;28;20452;-74
2023/06/12 09:41:49;;;;;;;2.92;2.40;;;26.80;96.70;;;;;;5083478;28;20048;-73
2023/06/12 09:44:22;;;;;;;2.50;2.30;;;27.00;96.70;;;;;;5083297;28;20038;-70
2023/06/12 09:46:50;;;;;;;3.25;2.13;;;27.10;96.70;;;;;;5084400;28;20337;-74
2023/06/12 09:49:24;;;;;;;2.63;2.10;;;27.00;96.70;;;;;;5085082;28;20040;-72
2023/06/12 09:51:53;;;;;;;2.83;2.25;;;27.20;96.70;;;;;;5084433;28;20040;-71
2023/06/12 09:54:22;;;;;;;4.53;2.50;;;27.30;96.70;;;;;;5065375;28;20039;-71
2023/06/12 09:56:54;;;;;;;2.50;2.30;;;27.30;96.70;;;;;;5077265;28;20052;-71
2023/06/12 09:59:27;;;;;;;2.63;2.30;;;27.40;96.70;;;;;;5075219;28;20066;-72
2023/06/12 10:02:03;;;;;;;4.97;4.10;;;27.40;96.70;;;;;;5080216;28;20175;-74
2023/06/12 10:04:37;;;;;;;4.63;3.50;;;27.30;96.70;;;;;;5083510;28;20121;-71
2023/06/12 10:07:11;;;;;;;4.40;3.97;;;27.30;96.70;;;;;;5082122;28;20048;-72
2023/06/12 10:09:40;;;;;;;3.58;3.25;;;27.20;96.70;;;;;;5064994;28;20513;-74
2023/06/12 10:12:10;;;;;;;4.75;2.88;;;27.30;96.70;;;;;;5084164;28;20646;-71
2023/06/12 10:14:41;;;;;;;4.00;2.58;;;27.40;96.70;;;;;;5074903;28;20044;-71
2023/06/12 10:17:10;;;;;;;2.83;2.28;;;27.40;96.70;;;;;;5083260;28;20105;-70
2023/06/12 10:19:47;;;;;;;3.97;2.67;;;27.50;96.70;;;;;;5077873;28;20646;-71
2023/06/12 10:22:15;;;;;;;3.30;2.40;;;28.00;96.70;;;;;;5084294;28;20127;-71
2023/06/12 10:24:43;;;;;;;2.90;2.58;;;27.90;96.70;;;;;;5081787;28;20058;-71
2023/06/12 10:27:12;;;;;;;3.35;2.22;;;28.00;96.70;;;;;;5083160;28;20048;-71
2023/06/12 10:29:42;;;;;;;2.42;2.22;;;28.00;96.70;;;;;;5065771;28;20041;-70
2023/06/12 10:32:14;;;;;;;3.55;2.20;;;28.10;96.70;;;;;;5078510;28;20869;-71
2023/06/12 10:34:45;;;;;;;2.67;1.83;;;28.50;96.70;;;;;;5084146;28;20051;-71
2023/06/12 10:37:22;;;;;;;2.63;2.17;;;28.90;96.70;;;;;;5083514;28;20040;-70
2023/06/12 10:40:18;;;;;;;2.50;2.25;;;29.10;96.70;;;;;;5061414;28;20824;-71
2023/06/12 10:43:05;;;;;;;2.85;2.05;;;29.20;96.70;;;;;;5081352;28;20063;-71
2023/06/12 10:45:38;;;;;;;2.58;2.38;;;28.70;96.70;;;;;;5074207;28;20040;-71
2023/06/12 10:48:17;;;;;;;4.90;2.47;;;28.40;96.70;;;;;;5083937;28;20040;-71
2023/06/12 10:50:49;;;;;;;6.32;3.20;;;28.30;96.70;;;;;;5082967;28;20401;-71
2023/06/12 10:53:22;;;;;;;4.18;2.72;;;28.30;96.70;;;;;;5081793;28;20040;-71
2023/06/12 10:55:55;;;;;;;3.92;2.22;;;28.50;96.70;;;;;;5082546;28;20505;-71
2023/06/12 10:58:25;;;;;;;3.05;2.25;;;28.80;96.70;;;;;;5075496;28;20115;-71
2023/06/12 11:00:56;;;;;;;2.70;2.15;;;28.80;96.70;;;;;;5083244;28;20040;-71
2023/06/12 11:03:33;;;;;;;2.42;2.22;;;28.80;96.70;;;;;;5081908;28;20089;-71
2023/06/12 11:06:12;;;;;;;4.05;2.20;;;28.90;96.70;;;;;;5075323;28;20072;-71
2023/06/12 11:08:42;;;;;;;2.75;2.15;;;29.20;96.70;;;;;;5083580;28;20438;-71
2023/06/12 11:11:11;;;;;;;2.83;2.05;;;29.40;96.70;;;;;;5083631;28;20040;-71
2023/06/12 11:13:40;;;;;;;2.35;2.13;;;29.70;96.70;;;;;;5078656;28;20036;-71
2023/06/12 11:16:12;;;;;;;2.53;2.33;;;30.00;96.70;;;;;;5082361;28;20073;-71
2023/06/12 11:18:41;;;;;;;3.05;2.10;;;30.30;96.70;;;;;;5083614;28;20055;-69
2023/06/12 11:21:10;;;;;;;2.10;2.00;;;30.20;96.70;;;;;;5082906;28;20052;-71
2023/06/12 11:23:42;;;;;;;2.95;2.30;;;29.90;96.70;;;;;;5082807;28;20058;-71
2023/06/12 11:26:15;;;;;;;2.65;2.38;;;29.80;96.70;;;;;;5082159;28;20097;-71
2023/06/12 11:28:44;;;;;;;2.85;2.05;;;30.10;96.70;;;;;;5072082;28;20044;-71
2023/06/12 11:31:13;;;;;;;3.50;2.20;;;30.40;96.70;;;;;;5078592;28;20093;-70
2023/06/12 11:33:42;;;;;;;3.42;2.17;;;30.60;96.70;;;;;;5079615;28;20379;-71
2023/06/12 11:36:10;;;;;;;3.03;2.47;;;30.70;96.70;;;;;;5080925;28;20497;-71
2023/06/12 11:38:38;;;;;;;4.22;2.20;;;30.50;96.70;;;;;;5082190;28;20425;-71
2023/06/12 11:41:11;;;;;;;3.15;2.30;;;30.80;96.70;;;;;;5084372;28;20047;-71
2023/06/12 11:43:42;;;;;;;2.28;2.08;;;30.90;96.70;;;;;;5078717;28;20117;-71
2023/06/12 11:46:11;;;;;;;2.30;2.10;;;31.00;96.70;;;;;;5063110;28;20056;-71
2023/06/12 11:48:40;;;;;;;2.13;1.92;;;31.30;96.70;;;;;;5081259;28;20055;-71
2023/06/12 11:51:12;;;;;;;3.28;2.33;;;31.60;96.70;;;;;;5082236;28;20043;-71
2023/06/12 11:53:41;;;;;;;4.53;2.22;;;31.80;96.70;;;;;;5081405;28;20615;-71
2023/06/12 11:56:08;;;;;;;2.45;1.90;;;32.00;96.70;;;;;;5081377;28;20051;-71
2023/06/12 11:58:44;;;;;;;2.15;1.73;;;32.20;96.70;;;;;;5083979;28;20044;-71
2023/06/12 12:01:13;;;;;;;2.42;1.85;;;32.20;96.70;;;;;;5082947;28;20048;-71
2023/06/12 12:03:46;;;;;;;2.20;2.00;;;32.10;96.70;;;;;;5096538;28;20429;-71
2023/06/12 12:06:15;;;;;;;2.50;1.90;;;32.30;96.70;;;;;;5062684;28;20105;-71
2023/06/12 12:08:43;;;;;;;2.58;1.77;;;32.40;96.70;;;;;;5078159;28;20645;-71
2023/06/12 12:11:18;;;;;;;2.95;2.40;;;32.80;96.70;;;;;;5068212;28;20075;-71
2023/06/12 12:13:52;;;;;;;2.03;1.83;;;32.20;96.70;;;;;;5067708;28;20079;-71
2023/06/12 12:16:26;;;;;;;2.40;2.20;;;31.60;96.70;;;;;;5074509;28;20044;-71
2023/06/12 12:18:56;;;;;;;2.60;1.90;;;31.60;96.70;;;;;;5073733;28;20402;-71
2023/06/12 12:21:25;;;;;;;1.83;1.55;;;31.90;96.70;;;;;;5082392;28;20119;-71
2023/06/12 12:23:53;;;;;;;2.78;1.88;;;32.30;96.70;;;;;;5075881;28;20105;-71
2023/06/12 12:26:25;;;;;;;2.47;2.08;;;32.30;96.70;;;;;;5082200;28;20139;-71
2023/06/12 12:29:19;;;;;;;2.67;2.05;;;32.20;96.70;;;;;;5082628;28;20059;-71
2023/06/12 12:31:48;;;;;;;2.42;1.80;;;31.50;96.70;;;;;;5081489;28;20044;-71
2023/06/12 12:34:18;;;;;;;4.05;1.98;;;31.20;96.70;;;;;;5082493;28;20040;-71
2023/06/12 12:36:47;;;;;;;2.65;1.90;;;31.10;96.70;;;;;;5068980;28;20044;-71
2023/06/12 12:39:15;;;;;;;3.63;2.08;;;31.20;96.70;;;;;;5070484;28;20456;-71
2023/06/12 12:41:43;;;;;;;1.52;1.42;;;31.70;96.70;;;;;;5072957;28;20450;-71
2023/06/12 12:44:12;;;;;;;4.75;1.77;;;32.00;96.70;;;;;;5079178;28;20563;-71
2023/06/12 12:46:40;;;;;;;2.50;1.85;;;32.40;96.70;;;;;;5082392;28;20039;-71
2023/06/12 12:49:09;;;;;;;3.13;1.88;;;32.60;96.70;;;;;;5080076;28;21441;-71
2023/06/12 12:51:38;;;;;;;2.80;1.90;;;32.90;96.70;;;;;;5081912;28;20040;-71
2023/06/12 12:54:07;;;;;;;2.25;2.05;;;33.20;96.70;;;;;;5082197;28;20051;-71
2023/06/12 12:56:35;;;;;;;2.00;1.90;;;33.40;96.70;;;;;;5064460;28;20040;-71
2023/06/12 12:59:05;;;;;;;1.88;1.73;;;33.30;96.70;;;;;;5077395;28;20054;-71
2023/06/12 13:01:34;;;;;;;3.85;2.05;;;33.30;96.70;;;;;;5072443;28;20052;-70
2023/06/12 13:04:02;;;;;;;3.08;2.30;;;33.80;96.70;;;;;;5082495;28;20291;-71